Time;durP1;ratioP1;P1;durP2;ratioP2;P2;SDS_P1;SDS_P2;PMS_P1;PMS_P2;Temp;Humidity;BMP_temperature;BMP_pressure;BME280_temperature;BME280_humidity;BME280_pressure;Samples;Min_cycle;Max_cycle;Signal;HPM_P1;HPM_P2
2023/05/07 00:00:51;;;;;;;115.90;53.80;;;;;;;14.20;100.00;101639.75;5051161;28;20521;-45
2023/05/07 00:03:16;;;;;;;127.57;53.72;;;;;;;14.12;100.00;101637.97;5071236;28;20116;-47
2023/05/07 00:05:42;;;;;;;124.43;53.88;;;;;;;14.08;100.00;101636.66;5070839;28;20036;-47
2023/05/07 00:08:07;;;;;;;128.23;52.83;;;;;;;14.07;100.00;101648.50;5077159;28;20525;-48
2023/05/07 00:10:33;;;;;;;134.77;57.85;;;;;;;14.05;100.00;101642.44;5054331;28;20072;-46
2023/05/07 00:12:58;;;;;;;141.95;57.88;;;;;;;14.01;100.00;101647.38;5049721;28;20084;-47
2023/05/07 00:15:24;;;;;;;130.02;57.38;;;;;;;14.03;100.00;101644.47;5056627;28;20036;-50
2023/05/07 00:17:49;;;;;;;137.20;59.58;;;;;;;14.04;100.00;101648.88;5052967;28;20039;-45
2023/05/07 00:20:15;;;;;;;128.88;57.08;;;;;;;14.02;100.00;101651.75;5069405;28;20028;-45
2023/05/07 00:22:40;;;;;;;134.65;57.47;;;;;;;14.03;100.00;101655.31;5070538;28;20139;-48
2023/05/07 00:25:06;;;;;;;143.70;58.40;;;;;;;14.04;100.00;101657.00;5061993;28;20108;-46
2023/05/07 00:27:31;;;;;;;143.13;60.05;;;;;;;14.08;100.00;101657.47;5069266;28;20470;-46
2023/05/07 00:29:57;;;;;;;145.13;58.55;;;;;;;14.06;100.00;101654.97;5070338;28;20028;-48
2023/05/07 00:32:22;;;;;;;142.15;56.67;;;;;;;14.09;100.00;101649.19;5058500;28;20029;-44
2023/05/07 00:34:47;;;;;;;142.10;58.63;;;;;;;14.09;100.00;101649.19;5055186;28;20025;-49
2023/05/07 00:37:13;;;;;;;135.48;58.78;;;;;;;14.07;100.00;101644.97;5054487;28;20426;-47
2023/05/07 00:39:38;;;;;;;147.65;59.10;;;;;;;14.09;100.00;101646.47;5043548;28;20112;-47
2023/05/07 00:42:04;;;;;;;157.48;60.50;;;;;;;14.08;100.00;101636.66;5061743;28;20550;-49
2023/05/07 00:44:29;;;;;;;145.45;60.33;;;;;;;14.08;100.00;101652.06;5055117;28;20107;-44
2023/05/07 00:46:57;;;;;;;143.52;58.83;;;;;;;14.09;100.00;101654.59;5065236;28;20090;-43
2023/05/07 00:49:24;;;;;;;141.02;57.28;;;;;;;14.14;100.00;101652.16;5056225;28;20033;-44
2023/05/07 00:51:51;;;;;;;143.45;57.30;;;;;;;14.17;100.00;101646.38;5053383;28;20037;-45
2023/05/07 00:54:16;;;;;;;129.93;55.05;;;;;;;14.19;100.00;101638.91;5053129;28;20359;-45
2023/05/07 00:56:41;;;;;;;134.65;58.15;;;;;;;14.20;100.00;101639.75;5070787;28;20071;-48
2023/05/07 00:59:07;;;;;;;135.68;58.20;;;;;;;14.22;100.00;101637.69;5061373;28;20339;-45
2023/05/07 01:01:34;;;;;;;127.82;54.28;;;;;;;14.20;100.00;101627.03;5068764;28;20044;-46
2023/05/07 01:03:59;;;;;;;133.80;55.38;;;;;;;14.22;100.00;101632.28;5067791;28;20067;-46
2023/05/07 01:06:26;;;;;;;130.95;52.92;;;;;;;14.20;100.00;101624.34;5059183;28;20044;-46
2023/05/07 01:08:52;;;;;;;124.55;54.35;;;;;;;14.21;100.00;101625.19;5053361;28;20086;-43
2023/05/07 01:11:20;;;;;;;134.10;56.95;;;;;;;14.20;100.00;101618.09;5067471;28;20433;-45
2023/05/07 01:13:46;;;;;;;129.80;57.25;;;;;;;14.16;100.00;101612.19;5057575;28;20098;-43
2023/05/07 01:16:11;;;;;;;138.05;57.65;;;;;;;14.13;100.00;101617.16;5065193;28;20045;-44
2023/05/07 01:18:37;;;;;;;144.15;58.35;;;;;;;14.12;100.00;101615.47;5063166;28;20082;-47
2023/05/07 01:21:04;;;;;;;142.75;57.85;;;;;;;14.07;100.00;101610.63;5063611;28;20097;-44
2023/05/07 01:23:30;;;;;;;134.20;56.25;;;;;;;14.04;100.00;101613.69;5059339;28;20053;-46
2023/05/07 01:25:56;;;;;;;143.32;57.92;;;;;;;14.02;100.00;101613.03;5060174;28;20029;-47
2023/05/07 01:28:21;;;;;;;141.63;57.03;;;;;;;13.96;100.00;101616.50;5054182;28;20483;-46
2023/05/07 01:30:50;;;;;;;129.98;56.35;;;;;;;13.95;100.00;101612.09;5053559;28;20033;-48
2023/05/07 01:33:19;;;;;;;138.15;58.22;;;;;;;13.96;100.00;101613.78;5052155;28;20063;-45
2023/05/07 01:35:48;;;;;;;128.65;55.67;;;;;;;13.91;100.00;101608.09;5053419;28;20082;-45
2023/05/07 01:38:13;;;;;;;134.18;57.65;;;;;;;13.90;100.00;101614.50;5061905;28;20439;-49
2023/05/07 01:40:39;;;;;;;136.73;56.63;;;;;;;13.87;100.00;101615.72;5072979;28;20043;-48
2023/05/07 01:43:05;;;;;;;125.65;52.90;;;;;;;13.86;100.00;101614.06;5072666;28;20424;-47
2023/05/07 01:45:31;;;;;;;124.97;54.85;;;;;;;13.87;100.00;101612.19;5055727;28;20049;-47
2023/05/07 01:47:58;;;;;;;132.80;56.85;;;;;;;13.88;100.00;101616.59;5065366;28;20063;-46
2023/05/07 01:50:23;;;;;;;127.65;52.63;;;;;;;13.92;100.00;101615.19;5052848;28;20032;-43
2023/05/07 01:52:50;;;;;;;137.85;54.83;;;;;;;13.96;100.00;101611.09;5066200;28;20024;-46
2023/05/07 01:55:16;;;;;;;127.75;56.25;;;;;;;13.92;100.00;101615.19;5070813;28;20189;-44
2023/05/07 01:57:41;;;;;;;132.43;56.35;;;;;;;13.87;100.00;101609.47;5054054;28;20068;-45
2023/05/07 02:00:08;;;;;;;128.63;55.00;;;;;;;13.88;100.00;101613.88;5075795;28;20090;-44
2023/05/07 02:02:34;;;;;;;127.10;56.33;;;;;;;13.87;100.00;101612.19;5058873;28;20111;-43
2023/05/07 02:05:00;;;;;;;134.55;54.72;;;;;;;13.88;100.00;101612.00;5072726;28;20106;-45
2023/05/07 02:07:25;;;;;;;135.52;56.85;;;;;;;13.92;100.00;101615.19;5071214;28;20043;-45
2023/05/07 02:09:50;;;;;;;144.20;58.10;;;;;;;13.95;100.00;101612.94;5071698;28;20028;-46
2023/05/07 02:12:16;;;;;;;131.32;55.95;;;;;;;14.01;100.00;101620.31;5072730;28;20060;-45
2023/05/07 02:14:41;;;;;;;125.43;55.00;;;;;;;14.07;100.00;101621.44;5074244;28;20040;-44
2023/05/07 02:17:07;;;;;;;133.43;55.70;;;;;;;14.08;100.00;101623.13;5072657;28;20641;-46
2023/05/07 02:19:32;;;;;;;124.65;52.33;;;;;;;14.07;100.00;101613.31;5066738;28;20421;-45
2023/05/07 02:21:58;;;;;;;126.55;52.40;;;;;;;14.07;100.00;101618.75;5063137;28;20024;-44
2023/05/07 02:24:23;;;;;;;117.13;48.72;;;;;;;14.03;100.00;101612.00;5063978;28;20024;-47
2023/05/07 02:26:48;;;;;;;117.53;50.13;;;;;;;14.01;100.00;101614.06;5063455;28;20046;-45
2023/05/07 02:29:14;;;;;;;118.22;49.30;;;;;;;14.00;100.00;101606.97;5062520;28;20017;-47
2023/05/07 02:31:39;;;;;;;118.05;48.38;;;;;;;14.05;100.00;101604.53;5052760;28;20029;-46
2023/05/07 02:34:05;;;;;;;104.90;45.28;;;;;;;14.07;100.00;101597.09;5070895;28;20032;-44
2023/05/07 02:36:30;;;;;;;102.30;44.03;;;;;;;14.07;100.00;101604.38;5055685;28;20032;-43
2023/05/07 02:38:55;;;;;;;109.35;45.95;;;;;;;14.08;100.00;101598.75;5071969;28;20140;-44
2023/05/07 02:41:21;;;;;;;101.60;43.88;;;;;;;14.04;100.00;101608.28;5060631;28;20036;-44
2023/05/07 02:43:46;;;;;;;97.93;43.85;;;;;;;14.08;100.00;101612.28;5059252;28;20584;-44
2023/05/07 02:46:12;;;;;;;95.18;43.75;;;;;;;14.09;100.00;101613.97;5058817;28;20051;-45
2023/05/07 02:48:37;;;;;;;100.25;46.15;;;;;;;14.03;100.00;101612.88;5050518;28;20029;-45
2023/05/07 02:51:04;;;;;;;94.90;42.08;;;;;;;14.02;100.00;101610.34;5070749;28;20040;-43
2023/05/07 02:53:29;;;;;;;110.82;46.60;;;;;;;13.98;100.00;101611.72;5071536;28;20036;-46
2023/05/07 02:55:56;;;;;;;106.25;46.08;;;;;;;13.96;100.00;101605.69;5071980;28;20081;-46
2023/05/07 02:58:21;;;;;;;104.25;45.03;;;;;;;13.99;100.00;101610.72;5071806;28;20052;-44
2023/05/07 03:00:47;;;;;;;110.35;45.40;;;;;;;14.05;100.00;101621.63;5071460;28;20073;-46
2023/05/07 03:03:13;;;;;;;99.25;44.28;;;;;;;14.08;100.00;101620.41;5051195;28;20025;-46
2023/05/07 03:05:38;;;;;;;98.95;45.15;;;;;;;14.10;100.00;101617.53;5051770;28;20021;-43
2023/05/07 03:08:04;;;;;;;100.15;44.63;;;;;;;14.13;100.00;101617.16;5051626;28;20071;-43
2023/05/07 03:10:30;;;;;;;93.93;44.30;;;;;;;14.20;100.00;101621.63;5050569;28;20479;-44
2023/05/07 03:12:55;;;;;;;89.38;43.78;;;;;;;14.22;100.00;101619.59;5050941;28;20025;-47
2023/05/07 03:15:21;;;;;;;100.65;45.30;;;;;;;14.22;100.00;101610.63;5059291;28;20032;-42
2023/05/07 03:17:47;;;;;;;99.47;45.28;;;;;;;14.20;100.00;101605.38;5070749;28;20032;-47
2023/05/07 03:20:12;;;;;;;98.53;47.05;;;;;;;14.18;100.00;101604.72;5058901;28;20494;-45
2023/05/07 03:22:38;;;;;;;93.97;46.20;;;;;;;14.19;100.00;101598.31;5066776;28;20028;-44
2023/05/07 03:25:04;;;;;;;88.88;45.03;;;;;;;14.15;100.00;101597.00;5071358;28;20032;-45
2023/05/07 03:27:30;;;;;;;96.43;45.92;;;;;;;14.14;100.00;101605.28;5069354;28;20028;-43
2023/05/07 03:29:55;;;;;;;94.25;44.90;;;;;;;14.11;100.00;101598.38;5067521;28;20468;-45
2023/05/07 03:32:20;;;;;;;95.40;46.95;;;;;;;14.09;100.00;101600.44;5060758;28;20033;-45
2023/05/07 03:34:46;;;;;;;98.75;43.22;;;;;;;14.12;100.00;101599.25;5062879;28;20021;-46
2023/05/07 03:37:11;;;;;;;87.38;46.20;;;;;;;14.13;100.00;101600.91;5049831;28;20021;-45
2023/05/07 03:39:36;;;;;;;87.68;42.72;;;;;;;14.11;100.00;101598.38;5051123;28;20029;-46
2023/05/07 03:42:02;;;;;;;91.13;45.47;;;;;;;14.10;100.00;101596.72;5045524;28;20128;-47
2023/05/07 03:44:28;;;;;;;93.13;45.22;;;;;;;14.05;100.00;101599.97;5038978;28;20029;-43
2023/05/07 03:46:55;;;;;;;95.18;44.97;;;;;;;14.07;100.00;101590.84;5067872;28;20040;-44
2023/05/07 03:49:21;;;;;;;91.20;42.73;;;;;;;14.14;100.00;101598.03;5069463;28;20024;-45
2023/05/07 03:51:46;;;;;;;92.45;44.50;;;;;;;14.12;100.00;101605.50;5069131;28;20630;-48
2023/05/07 03:54:11;;;;;;;89.40;42.75;;;;;;;14.08;100.00;101609.56;5071117;28;20447;-45
2023/05/07 03:56:37;;;;;;;91.90;43.20;;;;;;;14.15;100.00;101610.53;5069620;28;20056;-48
2023/05/07 03:59:02;;;;;;;91.88;44.30;;;;;;;14.14;100.00;101610.69;5070498;28;20055;-47
2023/05/07 04:01:27;;;;;;;91.53;44.58;;;;;;;14.13;100.00;101615.28;5063901;28;20043;-47
2023/05/07 04:03:53;;;;;;;91.45;44.47;;;;;;;14.13;100.00;101617.97;5069081;28;20093;-45
2023/05/07 04:06:18;;;;;;;91.75;45.25;;;;;;;14.15;100.00;101620.50;5053684;28;20031;-45
2023/05/07 04:08:44;;;;;;;92.63;44.90;;;;;;;14.13;100.00;101619.84;5060241;28;20043;-44
2023/05/07 04:11:09;;;;;;;91.65;45.40;;;;;;;14.17;100.00;101624.72;5080668;28;20055;-44
2023/05/07 04:13:34;;;;;;;86.93;43.22;;;;;;;14.17;100.00;101623.88;5095016;28;20032;-43
2023/05/07 04:16:02;;;;;;;88.25;43.83;;;;;;;14.15;100.00;101626.75;5094827;28;20430;-45
2023/05/07 04:18:28;;;;;;;82.63;44.33;;;;;;;14.11;100.00;101620.03;5093173;28;20058;-44
2023/05/07 04:20:53;;;;;;;86.22;44.20;;;;;;;14.15;100.00;101626.75;5076948;28;20417;-48
2023/05/07 04:23:18;;;;;;;85.93;43.45;;;;;;;14.15;100.00;101625.94;5095066;28;20027;-43
2023/05/07 04:25:45;;;;;;;89.45;45.28;;;;;;;14.15;100.00;101621.34;5076516;28;20710;-45
2023/05/07 04:28:10;;;;;;;86.88;43.83;;;;;;;14.17;100.00;101623.88;5083553;28;20044;-46
2023/05/07 04:30:36;;;;;;;83.57;44.42;;;;;;;14.20;100.00;101624.34;5070676;28;20033;-45
2023/05/07 04:33:01;;;;;;;85.72;43.42;;;;;;;14.22;100.00;101627.72;5056471;28;20065;-44
2023/05/07 04:35:27;;;;;;;89.95;43.70;;;;;;;14.22;100.00;101633.13;5069272;28;20373;-45
2023/05/07 04:37:52;;;;;;;83.00;41.55;;;;;;;14.21;100.00;101641.41;5059211;28;20091;-45
2023/05/07 04:40:17;;;;;;;80.30;40.97;;;;;;;14.13;100.00;101631.53;5057891;28;20036;-45
2023/05/07 04:42:43;;;;;;;78.30;42.63;;;;;;;14.15;100.00;101631.34;5083866;28;20032;-44
2023/05/07 04:45:10;;;;;;;80.68;41.45;;;;;;;14.15;100.00;101634.88;5077073;28;20029;-44
2023/05/07 04:47:35;;;;;;;73.57;39.97;;;;;;;14.20;100.00;101627.03;5069893;28;20063;-45
2023/05/07 04:50:01;;;;;;;75.18;40.50;;;;;;;14.26;100.00;101628.16;5057698;28;20375;-43
2023/05/07 04:52:26;;;;;;;76.88;40.35;;;;;;;14.29;100.00;101625.06;5053213;28;20105;-42
2023/05/07 04:54:52;;;;;;;75.38;39.95;;;;;;;14.25;100.00;101627.31;5055231;28;20036;-43
2023/05/07 04:57:17;;;;;;;78.45;40.38;;;;;;;14.27;100.00;101627.16;5072736;28;20243;-43
2023/05/07 04:59:43;;;;;;;71.55;40.53;;;;;;;14.24;100.00;101625.66;5073930;28;20107;-44
2023/05/07 05:02:10;;;;;;;78.00;40.05;;;;;;;14.23;100.00;101631.25;5073173;28;20451;-45
2023/05/07 05:04:36;;;;;;;79.85;39.85;;;;;;;14.26;100.00;101636.28;5072091;28;20020;-44
2023/05/07 05:07:03;;;;;;;62.88;37.97;;;;;;;14.27;100.00;101636.13;5071243;28;20561;-46
2023/05/07 05:09:28;;;;;;;74.28;39.33;;;;;;;14.32;100.00;101634.69;5056081;28;20048;-46
2023/05/07 05:11:54;;;;;;;69.05;39.20;;;;;;;14.39;100.00;101641.03;5068947;28;20025;-46
2023/05/07 05:14:19;;;;;;;66.80;37.17;;;;;;;14.45;100.00;101638.41;5059985;28;20104;-45
2023/05/07 05:16:44;;;;;;;72.55;38.85;;;;;;;14.46;100.00;101636.56;5062409;28;20136;-44
2023/05/07 05:19:10;;;;;;;70.15;39.25;;;;;;;14.47;100.00;101641.78;5064369;28;20492;-44
2023/05/07 05:21:35;;;;;;;69.20;38.70;;;;;;;14.48;100.00;101632.66;5072411;28;20108;-43
2023/05/07 05:24:01;;;;;;;72.97;39.13;;;;;;;14.48;100.00;101642.63;5073380;28;20025;-44
2023/05/07 05:26:26;;;;;;;70.88;38.63;;;;;;;14.52;100.00;101643.09;5072662;28;20129;-45
2023/05/07 05:28:51;;;;;;;65.13;36.97;;;;;;;14.53;100.00;101650.22;5072544;28;20020;-45
2023/05/07 05:31:17;;;;;;;70.38;36.75;;;;;;;14.53;100.00;101651.06;5064690;28;20032;-43
2023/05/07 05:33:42;;;;;;;59.45;35.22;;;;;;;14.55;100.00;101649.00;5041589;28;20040;-45
2023/05/07 05:36:11;;;;;;;62.67;37.13;;;;;;;14.54;100.00;101651.91;5055035;28;20025;-43
2023/05/07 05:38:37;;;;;;;65.00;36.85;;;;;;;14.59;100.00;101653.03;5053580;28;20483;-42
2023/05/07 05:41:02;;;;;;;66.88;37.08;;;;;;;14.69;100.00;101652.72;5070181;28;20028;-44
2023/05/07 05:43:28;;;;;;;63.10;36.33;;;;;;;14.78;100.00;101654.31;5090639;28;20055;-45
2023/05/07 05:45:53;;;;;;;69.93;37.80;;;;;;;14.79;100.00;101649.72;5051764;28;20033;-45
2023/05/07 05:48:18;;;;;;;64.03;35.63;;;;;;;14.78;100.00;101648.03;5050558;28;20021;-43
2023/05/07 05:50:44;;;;;;;64.43;36.78;;;;;;;14.88;100.00;101648.59;5059216;28;20029;-46
2023/05/07 05:53:10;;;;;;;73.43;36.28;;;;;;;14.86;100.00;101648.75;5072240;28;20100;-45
2023/05/07 05:55:35;;;;;;;67.40;34.97;;;;;;;15.05;100.00;101652.72;5060308;28;20029;-44
2023/05/07 05:58:01;;;;;;;62.33;33.90;;;;;;;15.15;100.00;101658.69;5069367;28;20411;-46
2023/05/07 06:00:27;;;;;;;59.75;34.42;;;;;;;15.10;100.00;101653.00;5065950;28;20158;-42
2023/05/07 06:02:52;;;;;;;58.08;33.50;;;;;;;15.26;100.00;101659.22;5052219;28;20093;-46
2023/05/07 06:05:18;;;;;;;63.03;34.20;;;;;;;15.23;100.00;101652.31;5056010;28;20021;-48
2023/05/07 06:07:43;;;;;;;57.65;33.95;;;;;;;15.32;100.00;101653.88;5048726;28;20029;-46
2023/05/07 06:10:08;;;;;;;63.17;35.42;;;;;;;15.43;100.00;101647.09;5064052;28;20036;-43
2023/05/07 06:12:35;;;;;;;56.65;31.85;;;;;;;15.54;100.00;101643.84;5054458;28;20033;-45
2023/05/07 06:15:01;;;;;;;56.83;33.20;;;;;;;15.39;100.00;101642.22;5053451;28;20364;-44
2023/05/07 06:17:26;;;;;;;53.20;31.60;;;;;;;15.58;100.00;101639.69;5069895;28;20029;-48
2023/05/07 06:19:52;;;;;;;60.33;31.63;;;;;;;15.78;100.00;101644.47;5063401;28;20040;-48
2023/05/07 06:22:17;;;;;;;56.60;32.03;;;;;;;15.78;100.00;101639.88;5057968;28;20029;-45
2023/05/07 06:24:43;;;;;;;53.35;30.40;;;;;;;15.90;100.00;101633.91;5066923;28;20025;-46
2023/05/07 06:27:08;;;;;;;53.75;30.10;;;;;;;15.93;100.00;101631.66;5060341;28;20429;-44
2023/05/07 06:29:33;;;;;;;55.40;30.92;;;;;;;16.20;100.00;101642.69;5065923;28;20111;-45
2023/05/07 06:32:12;;;;;;;48.75;29.27;;;;;;;16.81;100.00;101631.94;5070601;28;20021;-44
2023/05/07 06:34:39;;;;;;;46.92;26.52;;;;;;;17.88;100.00;101634.81;5057398;28;20029;-46
2023/05/07 06:37:05;;;;;;;39.38;25.27;;;;;;;18.38;100.00;101611.44;5052934;28;20033;-47
2023/05/07 06:39:30;;;;;;;40.88;24.13;;;;;;;18.37;100.00;101592.56;5032251;28;20025;-46
2023/05/07 06:41:56;;;;;;;41.50;23.58;;;;;;;17.90;100.00;101589.97;5050330;28;20029;-46
2023/05/07 06:44:21;;;;;;;36.95;23.13;;;;;;;18.28;100.00;101602.03;5050419;28;20037;-46
2023/05/07 06:46:46;;;;;;;38.85;21.45;;;;;;;19.40;100.00;101591.56;5051103;28;20017;-47
2023/05/07 06:49:13;;;;;;;35.08;20.33;;;;;;;20.11;100.00;101587.56;5053957;28;20135;-43
2023/05/07 06:51:38;;;;;;;34.67;20.73;;;;;;;21.00;100.00;101574.25;5038660;28;20107;-46
2023/05/07 06:54:04;;;;;;;27.90;17.95;;;;;;;22.34;100.00;101568.13;5033169;28;20025;-46
2023/05/07 06:56:30;;;;;;;28.23;16.92;;;;;;;23.09;100.00;101569.00;5062799;28;20044;-44
2023/05/07 06:58:55;;;;;;;28.42;17.20;;;;;;;22.83;100.00;101574.03;5052597;28;20041;-47
2023/05/07 07:01:21;;;;;;;27.77;17.73;;;;;;;21.65;100.00;101573.44;5058266;28;20115;-47
2023/05/07 07:03:46;;;;;;;28.65;16.55;;;;;;;21.53;100.00;101570.66;5032036;28;20474;-45
2023/05/07 07:06:12;;;;;;;28.40;18.20;;;;;;;22.16;100.00;101577.31;5049838;28;20036;-45
2023/05/07 07:08:38;;;;;;;28.00;17.33;;;;;;;22.68;100.00;101568.25;5053609;28;20033;-44
2023/05/07 07:11:04;;;;;;;25.45;16.95;;;;;;;22.42;100.00;101581.44;5049929;28;20041;-47
2023/05/07 07:13:29;;;;;;;22.50;14.95;;;;;;;22.48;100.00;101576.91;5048001;28;20631;-48
2023/05/07 07:15:55;;;;;;;24.42;15.32;;;;;;;22.91;100.00;101581.88;5057456;28;20113;-44
2023/05/07 07:18:20;;;;;;;23.63;15.23;;;;;;;22.61;100.00;101573.88;5061182;28;20057;-45
2023/05/07 07:20:45;;;;;;;28.27;16.00;;;;;;;22.03;100.00;101574.81;5061495;28;20078;-45
2023/05/07 07:23:11;;;;;;;27.65;16.25;;;;;;;21.34;100.00;101578.13;5048823;28;20031;-43
2023/05/07 07:25:36;;;;;;;29.02;17.40;;;;;;;21.08;100.00;101568.44;5060564;28;20033;-48
2023/05/07 07:28:02;;;;;;;28.38;17.63;;;;;;;20.87;100.00;101572.53;5064674;28;20099;-46
2023/05/07 07:30:27;;;;;;;30.40;17.52;;;;;;;21.16;100.00;101581.78;5064519;28;20131;-44
2023/05/07 07:32:53;;;;;;;26.30;16.20;;;;;;;21.79;100.00;101574.03;5057835;28;20347;-47
2023/05/07 07:35:18;;;;;;;29.60;17.20;;;;;;;21.11;100.00;101567.97;5064299;28;20586;-45
2023/05/07 07:37:44;;;;;;;24.67;15.98;;;;;;;21.17;100.00;101574.38;5055600;28;20047;-43
2023/05/07 07:40:11;;;;;;;27.33;17.50;;;;;;;20.71;100.00;101584.97;5062640;28;20029;-45
2023/05/07 07:42:36;;;;;;;32.05;18.50;;;;;;;20.68;100.00;101579.97;5057879;28;20053;-44
2023/05/07 07:45:03;;;;;;;23.67;16.00;;;;;;;21.36;100.00;101580.66;5051404;28;20079;-46
2023/05/07 07:47:28;;;;;;;29.42;16.73;;;;;;;21.55;100.00;101582.22;5065210;28;20129;-50
2023/05/07 07:49:53;;;;;;;24.75;16.67;;;;;;;21.53;100.00;101578.88;5049913;28;20025;-48
2023/05/07 07:52:19;;;;;;;25.17;16.95;;;;;;;21.84;100.00;101585.09;5065666;28;20438;-46
2023/05/07 07:54:44;;;;;;;25.58;15.35;;;;;;;22.28;100.00;101580.06;5067737;28;20037;-47
2023/05/07 07:57:10;;;;;;;25.73;14.75;;;;;;;23.31;100.00;101585.59;5063524;28;20055;-44
2023/05/07 07:59:35;;;;;;;24.15;13.63;;;;;;;24.07;100.00;101585.97;5054358;28;20094;-48
2023/05/07 08:02:00;;;;;;;19.60;12.65;;;;;;;24.68;100.00;101580.41;5062599;28;20479;-44
2023/05/07 08:04:26;;;;;;;25.13;12.13;;;;;;;24.49;100.00;101582.69;5068453;28;20466;-44
2023/05/07 08:06:51;;;;;;;18.65;10.75;;;;;;;23.86;100.00;101588.44;5069610;28;20035;-46
2023/05/07 08:09:16;;;;;;;19.75;13.10;;;;;;;23.14;100.00;101583.66;5061334;28;20028;-46
2023/05/07 08:11:42;;;;;;;26.58;12.85;;;;;;;22.53;100.00;101580.56;5070195;28;20028;-44
2023/05/07 08:14:07;;;;;;;22.85;13.38;;;;;;;21.86;100.00;101577.47;5069818;28;20033;-43
2023/05/07 08:16:33;;;;;;;25.83;13.38;;;;;;;21.45;100.00;101584.72;5070171;28;20037;-45
2023/05/07 08:18:58;;;;;;;27.52;14.55;;;;;;;21.12;100.00;101580.59;5068280;28;20563;-44
2023/05/07 08:21:23;;;;;;;27.70;15.65;;;;;;;20.26;100.00;101592.66;5070331;28;20120;-44
2023/05/07 08:23:49;;;;;;;27.40;13.82;;;;;;;20.07;100.00;101600.88;5070232;28;20073;-46
2023/05/07 08:26:14;;;;;;;22.42;13.38;;;;;;;19.80;100.00;101610.38;5068874;28;20115;-45
2023/05/07 08:28:40;;;;;;;28.25;15.23;;;;;;;19.81;100.00;101612.88;5069554;28;20266;-46
2023/05/07 08:31:05;;;;;;;27.10;16.17;;;;;;;19.50;100.00;101613.75;5069005;28;20450;-47
2023/05/07 08:33:31;;;;;;;26.15;15.77;;;;;;;19.61;100.00;101617.66;5069962;28;20024;-47
2023/05/07 08:35:56;;;;;;;33.88;14.80;;;;;;;19.41;100.00;101615.94;5070306;28;20651;-47
2023/05/07 08:38:21;;;;;;;27.27;16.75;;;;;;;19.15;100.00;101624.31;5070493;28;20021;-45
2023/05/07 08:40:47;;;;;;;31.80;16.42;;;;;;;18.86;100.00;101615.66;5069550;28;20115;-44
2023/05/07 08:43:14;;;;;;;27.23;16.60;;;;;;;18.89;100.00;101626.13;5068700;28;20029;-46
2023/05/07 08:45:40;;;;;;;27.98;16.35;;;;;;;18.81;100.00;101627.22;5068640;28;20052;-43
2023/05/07 08:48:10;;;;;;;29.15;17.30;;;;;;;18.55;100.00;101630.88;5068666;28;20363;-45
2023/05/07 08:50:36;;;;;;;29.30;17.33;;;;;;;18.50;100.00;101619.78;5070434;28;20095;-46
2023/05/07 08:53:03;;;;;;;32.50;16.95;;;;;;;18.45;100.00;101624.19;5072402;28;20546;-47
2023/05/07 08:55:28;;;;;;;28.53;17.37;;;;;;;18.52;100.00;101625.84;5073390;28;20145;-44
2023/05/07 08:57:54;;;;;;;29.88;16.80;;;;;;;18.72;100.00;101633.09;5073384;28;20377;-46
2023/05/07 09:00:19;;;;;;;30.70;17.08;;;;;;;19.24;100.00;101628.44;5073234;28;20096;-45
2023/05/07 09:02:44;;;;;;;26.25;15.85;;;;;;;19.47;100.00;101633.31;5072930;28;20086;-46
2023/05/07 09:05:10;;;;;;;25.60;14.52;;;;;;;20.34;100.00;101628.72;5072992;28;20032;-46
2023/05/07 09:07:35;;;;;;;25.67;13.23;;;;;;;20.82;100.00;101636.16;5053860;28;20028;-45
2023/05/07 09:10:03;;;;;;;29.10;13.32;;;;;;;20.96;100.00;101623.16;5056851;28;20039;-45
2023/05/07 09:12:28;;;;;;;;;;;;;;;20.93;100.00;101625.50;5053488;28;20108;-47
2023/05/07 09:14:53;;;;;;;23.88;12.73;;;;;;;21.00;100.00;101626.25;5050824;28;20288;-44
2023/05/07 09:17:19;;;;;;;26.10;12.48;;;;;;;20.67;100.00;101621.22;5053381;28;20031;-46
2023/05/07 09:19:48;;;;;;;27.65;11.15;;;;;;;20.75;100.00;101618.19;5051549;28;20506;-45
2023/05/07 09:22:13;;;;;;;23.40;11.43;;;;;;;20.73;100.00;101628.50;5068584;28;20025;-47
2023/05/07 09:24:39;;;;;;;21.95;12.50;;;;;;;21.09;100.00;101624.88;5072814;28;20035;-45
2023/05/07 09:27:05;;;;;;;17.52;10.35;;;;;;;21.39;100.00;101624.84;5072311;28;20248;-46
2023/05/07 09:29:35;;;;;;;26.10;11.32;;;;;;;21.55;100.00;101627.97;5072311;28;20028;-46
2023/05/07 09:32:05;;;;;;;20.77;11.32;;;;;;;21.34;100.00;101627.41;5072889;28;20044;-46
2023/05/07 09:34:30;;;;;;;21.25;11.48;;;;;;;21.48;100.00;101619.84;5071261;28;20029;-46
2023/05/07 09:36:57;;;;;;;23.58;10.85;;;;;;;21.39;100.00;101619.38;5072730;28;20102;-47
2023/05/07 09:39:23;;;;;;;20.25;10.63;;;;;;;21.35;100.00;101622.75;5071183;28;20681;-44
2023/05/07 09:41:51;;;;;;;17.60;8.88;;;;;;;21.45;100.00;101628.53;5072516;28;20028;-45
2023/05/07 09:44:16;;;;;;;20.45;8.30;;;;;;;20.91;100.00;101630.38;5072069;28;20474;-45
2023/05/07 09:46:44;;;;;;;17.02;8.60;;;;;;;20.52;100.00;101624.31;5070963;28;20063;-48
2023/05/07 09:49:13;;;;;;;;;;;;;;;20.17;100.00;101638.59;5071440;28;20028;-44
2023/05/07 09:51:47;;;;;;;20.08;9.80;;;;;;;20.31;100.00;101637.38;5072751;28;19953;-46
2023/05/07 09:54:13;;;;;;;28.80;10.95;;;;;;;20.19;100.00;101631.00;5072150;28;20489;-45
2023/05/07 09:56:41;;;;;;;19.70;9.63;;;;;;;20.39;100.00;101642.53;5071897;28;20073;-46
2023/05/07 09:59:06;;;;;;;23.70;10.93;;;;;;;20.16;100.00;101632.28;5070748;28;20411;-46
2023/05/07 10:01:32;;;;;;;22.50;10.18;;;;;;;20.31;100.00;101639.28;5071916;28;20024;-44
2023/05/07 10:04:01;;;;;;;27.63;10.52;;;;;;;20.26;100.00;101639.97;5054177;28;20033;-44
2023/05/07 10:06:27;;;;;;;27.60;11.20;;;;;;;20.54;100.00;101646.84;5071365;28;20032;-43
2023/05/07 10:08:52;;;;;;;24.95;10.95;;;;;;;20.84;100.00;101638.66;5070342;28;20075;-44
2023/05/07 10:11:18;;;;;;;25.27;11.77;;;;;;;20.74;100.00;101633.72;5071977;28;20025;-44
2023/05/07 10:13:43;;;;;;;28.45;12.10;;;;;;;20.45;100.00;101639.97;5072036;28;20051;-45
2023/05/07 10:16:09;;;;;;;23.48;11.77;;;;;;;20.41;100.00;101636.88;5070329;28;20032;-44
2023/05/07 10:18:34;;;;;;;25.52;11.23;;;;;;;20.41;100.00;101641.50;5071799;28;20466;-44
2023/05/07 10:21:26;;;;;;;29.48;10.38;;;;;;;20.60;100.00;101632.25;5071869;28;20040;-44
2023/05/07 10:24:01;;;;;;;18.25;8.50;;;;;;;21.38;100.00;101633.28;5071635;28;20487;-44
2023/05/07 10:26:28;;;;;;;19.80;9.32;;;;;;;21.45;100.00;101634.00;5070193;28;20082;-45
2023/05/07 10:28:55;;;;;;;;;;;;;;;21.55;100.00;101633.44;5054316;28;20020;-45
2023/05/07 10:31:21;;;;;;;20.55;8.90;;;;;;;21.73;100.00;101632.53;5071946;28;19908;-48
2023/05/07 10:33:48;;;;;;;23.17;9.60;;;;;;;22.10;100.00;101635.84;5070656;28;20032;-47
2023/05/07 10:36:14;;;;;;;20.58;8.50;;;;;;;22.09;100.00;101628.69;5070457;28;20017;-46
2023/05/07 10:38:40;;;;;;;22.15;10.02;;;;;;;21.99;100.00;101633.97;5070442;28;20432;-50
2023/05/07 10:41:06;;;;;;;21.00;10.55;;;;;;;21.22;100.00;101624.66;5070133;28;20462;-48
2023/05/07 10:43:42;;;;;;;19.85;9.85;;;;;;;20.68;100.00;101637.41;5071101;28;20033;-47
2023/05/07 10:46:13;;;;;;;26.25;8.88;;;;;;;20.72;100.00;101644.09;5069862;28;20105;-46
2023/05/07 10:49:00;;;;;;;21.27;9.18;;;;;;;20.60;100.00;101651.41;5070892;28;20054;-46
2023/05/07 10:51:26;;;;;;;20.58;8.35;;;;;;;20.21;100.00;101653.47;5071275;28;20031;-47
2023/05/07 10:54:10;;;;;;;23.92;9.63;;;;;;;20.13;100.00;101646.41;5071136;28;20020;-45
2023/05/07 10:56:39;;;;;;;22.67;8.82;;;;;;;20.04;100.00;101650.50;5070891;28;20140;-45